sensor_id;sensor_type;location;lat;lon;timestamp;P1;durP1;ratioP1;P2;durP2;ratioP2
20794;SDS011;28087;-33.874;151.240;2022-10-19T00:00:22;7.75;;;4.15;;
20794;SDS011;28087;-33.874;151.240;2022-10-19T00:02:58;8.68;;;4.07;;
20794;SDS011;28087;-33.874;151.240;2022-10-19T00:05:33;10.52;;;5.00;;
20794;SDS011;28087;-33.874;151.240;2022-10-19T00:08:09;9.63;;;4.10;;
20794;SDS011;28087;-33.874;151.240;2022-10-19T00:10:46;8.38;;;4.10;;
20794;SDS011;28087;-33.874;151.240;2022-10-19T00:13:21;7.50;;;3.80;;
20794;SDS011;28087;-33.874;151.240;2022-10-19T00:15:56;8.70;;;3.83;;
20794;SDS011;28087;-33.874;151.240;2022-10-19T00:18:36;6.85;;;4.10;;
20794;SDS011;28087;-33.874;151.240;2022-10-19T00:21:15;12.32;;;4.75;;
20794;SDS011;28087;-33.874;151.240;2022-10-19T00:23:51;9.05;;;4.35;;
20794;SDS011;28087;-33.874;151.240;2022-10-19T00:26:30;12.05;;;4.60;;
20794;SDS011;28087;-33.874;151.240;2022-10-19T00:29:05;8.88;;;4.03;;
20794;SDS011;28087;-33.874;151.240;2022-10-19T00:31:42;6.68;;;3.67;;
20794;SDS011;28087;-33.874;151.240;2022-10-19T00:34:19;8.73;;;4.30;;
20794;SDS011;28087;-33.874;151.240;2022-10-19T00:36:54;8.48;;;4.28;;
20794;SDS011;28087;-33.874;151.240;2022-10-19T00:39:30;6.72;;;3.95;;
20794;SDS011;28087;-33.874;151.240;2022-10-19T00:42:08;7.82;;;3.53;;
20794;SDS011;28087;-33.874;151.240;2022-10-19T00:45:03;10.55;;;4.22;;
20794;SDS011;28087;-33.874;151.240;2022-10-19T00:47:40;8.30;;;3.70;;
20794;SDS011;28087;-33.874;151.240;2022-10-19T00:50:20;10.68;;;4.07;;
20794;SDS011;28087;-33.874;151.240;2022-10-19T00:52:55;8.52;;;3.80;;
20794;SDS011;28087;-33.874;151.240;2022-10-19T00:55:30;11.02;;;4.53;;
20794;SDS011;28087;-33.874;151.240;2022-10-19T00:58:09;8.75;;;4.00;;
20794;SDS011;28087;-33.874;151.240;2022-10-19T01:00:44;11.70;;;4.10;;
20794;SDS011;28087;-33.874;151.240;2022-10-19T01:03:20;11.95;;;4.70;;
20794;SDS011;28087;-33.874;151.240;2022-10-19T01:05:58;13.60;;;5.10;;
20794;SDS011;28087;-33.874;151.240;2022-10-19T01:08:36;11.77;;;4.22;;
20794;SDS011;28087;-33.874;151.240;2022-10-19T01:11:14;9.85;;;3.80;;
20794;SDS011;28087;-33.874;151.240;2022-10-19T01:14:05;8.10;;;3.75;;
20794;SDS011;28087;-33.874;151.240;2022-10-19T01:16:53;10.30;;;4.22;;
20794;SDS011;28087;-33.874;151.240;2022-10-19T01:22:55;9.10;;;3.97;;
20794;SDS011;28087;-33.874;151.240;2022-10-19T01:25:47;9.02;;;3.60;;
20794;SDS011;28087;-33.874;151.240;2022-10-19T01:28:33;11.18;;;3.78;;
20794;SDS011;28087;-33.874;151.240;2022-10-19T01:31:21;9.95;;;3.90;;
20794;SDS011;28087;-33.874;151.240;2022-10-19T01:34:05;9.40;;;4.00;;
20794;SDS011;28087;-33.874;151.240;2022-10-19T01:36:55;10.75;;;4.13;;
20794;SDS011;28087;-33.874;151.240;2022-10-19T01:39:35;9.30;;;4.10;;
20794;SDS011;28087;-33.874;151.240;2022-10-19T01:42:19;14.30;;;4.40;;
20794;SDS011;28087;-33.874;151.240;2022-10-19T01:45:02;11.25;;;4.40;;
20794;SDS011;28087;-33.874;151.240;2022-10-19T01:47:46;11.43;;;4.65;;
20794;SDS011;28087;-33.874;151.240;2022-10-19T01:50:26;14.95;;;4.20;;
20794;SDS011;28087;-33.874;151.240;2022-10-19T01:53:04;8.82;;;3.67;;
20794;SDS011;28087;-33.874;151.240;2022-10-19T01:55:44;10.30;;;3.75;;
20794;SDS011;28087;-33.874;151.240;2022-10-19T01:58:24;7.38;;;3.20;;
20794;SDS011;28087;-33.874;151.240;2022-10-19T02:01:03;11.73;;;3.50;;
20794;SDS011;28087;-33.874;151.240;2022-10-19T02:03:43;7.70;;;3.17;;
20794;SDS011;28087;-33.874;151.240;2022-10-19T02:06:18;6.28;;;2.70;;
20794;SDS011;28087;-33.874;151.240;2022-10-19T02:08:57;6.63;;;2.70;;
20794;SDS011;28087;-33.874;151.240;2022-10-19T02:11:32;8.85;;;2.60;;
20794;SDS011;28087;-33.874;151.240;2022-10-19T02:14:14;9.02;;;3.00;;
20794;SDS011;28087;-33.874;151.240;2022-10-19T02:16:52;9.45;;;2.40;;
20794;SDS011;28087;-33.874;151.240;2022-10-19T02:19:33;8.32;;;2.25;;
20794;SDS011;28087;-33.874;151.240;2022-10-19T02:22:08;6.55;;;2.20;;
20794;SDS011;28087;-33.874;151.240;2022-10-19T02:24:44;8.15;;;2.30;;
20794;SDS011;28087;-33.874;151.240;2022-10-19T02:27:19;5.60;;;1.88;;
20794;SDS011;28087;-33.874;151.240;2022-10-19T02:30:14;6.00;;;1.95;;
20794;SDS011;28087;-33.874;151.240;2022-10-19T02:32:53;6.30;;;2.00;;
20794;SDS011;28087;-33.874;151.240;2022-10-19T02:35:30;5.32;;;2.03;;
20794;SDS011;28087;-33.874;151.240;2022-10-19T02:38:06;6.90;;;1.95;;
20794;SDS011;28087;-33.874;151.240;2022-10-19T02:40:44;5.35;;;1.83;;
20794;SDS011;28087;-33.874;151.240;2022-10-19T02:43:24;7.70;;;1.85;;
20794;SDS011;28087;-33.874;151.240;2022-10-19T02:46:03;6.63;;;1.98;;
20794;SDS011;28087;-33.874;151.240;2022-10-19T02:48:43;5.10;;;1.92;;
20794;SDS011;28087;-33.874;151.240;2022-10-19T02:51:31;6.45;;;1.98;;
20794;SDS011;28087;-33.874;151.240;2022-10-19T02:54:09;5.88;;;1.90;;
20794;SDS011;28087;-33.874;151.240;2022-10-19T02:56:44;6.05;;;1.80;;
20794;SDS011;28087;-33.874;151.240;2022-10-19T02:59:19;5.78;;;2.00;;
20794;SDS011;28087;-33.874;151.240;2022-10-19T03:01:54;6.32;;;2.10;;
20794;SDS011;28087;-33.874;151.240;2022-10-19T03:04:30;6.53;;;2.35;;
20794;SDS011;28087;-33.874;151.240;2022-10-19T03:07:09;9.32;;;2.30;;
20794;SDS011;28087;-33.874;151.240;2022-10-19T03:09:46;7.90;;;2.20;;
20794;SDS011;28087;-33.874;151.240;2022-10-19T03:12:22;7.78;;;2.00;;
20794;SDS011;28087;-33.874;151.240;2022-10-19T03:14:57;9.57;;;2.10;;
20794;SDS011;28087;-33.874;151.240;2022-10-19T03:17:34;7.78;;;1.98;;
20794;SDS011;28087;-33.874;151.240;2022-10-19T03:20:12;7.28;;;1.70;;
20794;SDS011;28087;-33.874;151.240;2022-10-19T03:22:49;6.15;;;1.50;;
20794;SDS011;28087;-33.874;151.240;2022-10-19T03:25:25;9.35;;;2.10;;
20794;SDS011;28087;-33.874;151.240;2022-10-19T03:28:02;7.45;;;2.10;;
20794;SDS011;28087;-33.874;151.240;2022-10-19T03:30:37;5.47;;;1.70;;
20794;SDS011;28087;-33.874;151.240;2022-10-19T03:33:13;7.32;;;1.95;;
20794;SDS011;28087;-33.874;151.240;2022-10-19T03:35:48;6.43;;;1.58;;
20794;SDS011;28087;-33.874;151.240;2022-10-19T03:38:25;6.63;;;1.80;;
20794;SDS011;28087;-33.874;151.240;2022-10-19T03:41:01;7.78;;;1.80;;
20794;SDS011;28087;-33.874;151.240;2022-10-19T03:43:39;7.15;;;1.90;;
20794;SDS011;28087;-33.874;151.240;2022-10-19T03:46:14;6.72;;;1.60;;
20794;SDS011;28087;-33.874;151.240;2022-10-19T03:48:49;9.25;;;1.80;;
20794;SDS011;28087;-33.874;151.240;2022-10-19T03:51:26;7.65;;;1.75;;
20794;SDS011;28087;-33.874;151.240;2022-10-19T03:54:04;7.53;;;2.10;;
20794;SDS011;28087;-33.874;151.240;2022-10-19T03:56:41;8.23;;;1.88;;
20794;SDS011;28087;-33.874;151.240;2022-10-19T03:59:16;9.10;;;2.03;;
20794;SDS011;28087;-33.874;151.240;2022-10-19T04:01:52;6.15;;;1.88;;
20794;SDS011;28087;-33.874;151.240;2022-10-19T04:04:27;8.75;;;1.80;;
20794;SDS011;28087;-33.874;151.240;2022-10-19T04:07:02;6.28;;;1.90;;
20794;SDS011;28087;-33.874;151.240;2022-10-19T04:09:42;7.97;;;1.88;;
20794;SDS011;28087;-33.874;151.240;2022-10-19T04:12:18;8.43;;;1.95;;
20794;SDS011;28087;-33.874;151.240;2022-10-19T04:14:53;8.25;;;1.88;;
20794;SDS011;28087;-33.874;151.240;2022-10-19T04:17:28;8.82;;;1.80;;
20794;SDS011;28087;-33.874;151.240;2022-10-19T04:20:05;8.63;;;1.80;;
20794;SDS011;28087;-33.874;151.240;2022-10-19T04:22:41;8.75;;;2.00;;
20794;SDS011;28087;-33.874;151.240;2022-10-19T04:25:19;6.43;;;1.60;;
20794;SDS011;28087;-33.874;151.240;2022-10-19T04:27:55;8.48;;;1.90;;
20794;SDS011;28087;-33.874;151.240;2022-10-19T04:30:31;7.88;;;2.03;;
20794;SDS011;28087;-33.874;151.240;2022-10-19T04:33:06;6.72;;;1.75;;
20794;SDS011;28087;-33.874;151.240;2022-10-19T04:35:42;7.72;;;2.15;;
20794;SDS011;28087;-33.874;151.240;2022-10-19T04:38:17;9.27;;;2.00;;
20794;SDS011;28087;-33.874;151.240;2022-10-19T04:40:54;8.57;;;2.20;;
20794;SDS011;28087;-33.874;151.240;2022-10-19T04:43:32;9.57;;;2.17;;
20794;SDS011;28087;-33.874;151.240;2022-10-19T04:46:08;9.90;;;2.35;;
20794;SDS011;28087;-33.874;151.240;2022-10-19T04:48:44;7.97;;;2.20;;
20794;SDS011;28087;-33.874;151.240;2022-10-19T04:51:20;7.13;;;2.00;;
20794;SDS011;28087;-33.874;151.240;2022-10-19T04:53:56;7.18;;;2.20;;
20794;SDS011;28087;-33.874;151.240;2022-10-19T04:56:36;9.00;;;2.03;;
20794;SDS011;28087;-33.874;151.240;2022-10-19T04:59:11;9.45;;;2.15;;
20794;SDS011;28087;-33.874;151.240;2022-10-19T05:01:46;9.98;;;2.00;;
20794;SDS011;28087;-33.874;151.240;2022-10-19T05:04:22;9.73;;;1.95;;
20794;SDS011;28087;-33.874;151.240;2022-10-19T05:06:58;7.07;;;1.83;;
20794;SDS011;28087;-33.874;151.240;2022-10-19T05:09:33;10.05;;;2.35;;
20794;SDS011;28087;-33.874;151.240;2022-10-19T05:12:12;8.18;;;2.17;;
20794;SDS011;28087;-33.874;151.240;2022-10-19T05:14:47;9.90;;;2.08;;
20794;SDS011;28087;-33.874;151.240;2022-10-19T05:17:23;7.88;;;2.30;;
20794;SDS011;28087;-33.874;151.240;2022-10-19T05:19:59;10.63;;;2.40;;
20794;SDS011;28087;-33.874;151.240;2022-10-19T05:22:34;9.15;;;2.35;;
20794;SDS011;28087;-33.874;151.240;2022-10-19T05:25:12;12.35;;;2.55;;
20794;SDS011;28087;-33.874;151.240;2022-10-19T05:27:53;11.13;;;2.22;;
20794;SDS011;28087;-33.874;151.240;2022-10-19T05:30:29;10.82;;;2.10;;
20794;SDS011;28087;-33.874;151.240;2022-10-19T05:33:06;9.75;;;2.38;;
20794;SDS011;28087;-33.874;151.240;2022-10-19T05:35:41;9.23;;;2.20;;
20794;SDS011;28087;-33.874;151.240;2022-10-19T05:38:17;10.80;;;2.38;;
20794;SDS011;28087;-33.874;151.240;2022-10-19T05:40:53;10.38;;;2.40;;
20794;SDS011;28087;-33.874;151.240;2022-10-19T05:43:30;13.27;;;2.63;;
20794;SDS011;28087;-33.874;151.240;2022-10-19T05:46:09;11.52;;;2.67;;
20794;SDS011;28087;-33.874;151.240;2022-10-19T05:48:45;15.65;;;2.97;;
20794;SDS011;28087;-33.874;151.240;2022-10-19T05:51:21;10.25;;;2.20;;
20794;SDS011;28087;-33.874;151.240;2022-10-19T05:53:58;10.73;;;2.13;;
20794;SDS011;28087;-33.874;151.240;2022-10-19T05:56:33;8.40;;;2.08;;
20794;SDS011;28087;-33.874;151.240;2022-10-19T05:59:12;13.55;;;2.92;;
20794;SDS011;28087;-33.874;151.240;2022-10-19T06:01:49;11.77;;;2.40;;
20794;SDS011;28087;-33.874;151.240;2022-10-19T06:04:24;9.65;;;2.10;;
20794;SDS011;28087;-33.874;151.240;2022-10-19T06:07:00;11.48;;;2.50;;
20794;SDS011;28087;-33.874;151.240;2022-10-19T06:09:40;13.55;;;2.33;;
20794;SDS011;28087;-33.874;151.240;2022-10-19T06:13:23;10.85;;;2.40;;
20794;SDS011;28087;-33.874;151.240;2022-10-19T06:16:16;10.52;;;2.58;;
20794;SDS011;28087;-33.874;151.240;2022-10-19T06:19:09;11.05;;;2.70;;
20794;SDS011;28087;-33.874;151.240;2022-10-19T06:22:01;10.60;;;2.63;;
20794;SDS011;28087;-33.874;151.240;2022-10-19T06:24:54;8.10;;;2.38;;
20794;SDS011;28087;-33.874;151.240;2022-10-19T06:27:30;11.45;;;2.50;;
20794;SDS011;28087;-33.874;151.240;2022-10-19T06:33:52;13.55;;;2.78;;
20794;SDS011;28087;-33.874;151.240;2022-10-19T06:36:28;12.15;;;2.40;;
20794;SDS011;28087;-33.874;151.240;2022-10-19T06:39:04;12.48;;;2.58;;
20794;SDS011;28087;-33.874;151.240;2022-10-19T06:41:39;11.45;;;2.50;;
20794;SDS011;28087;-33.874;151.240;2022-10-19T06:44:22;11.45;;;2.50;;
20794;SDS011;28087;-33.874;151.240;2022-10-19T06:47:00;10.43;;;2.47;;
20794;SDS011;28087;-33.874;151.240;2022-10-19T06:49:35;13.77;;;2.70;;
20794;SDS011;28087;-33.874;151.240;2022-10-19T06:52:13;10.93;;;2.58;;
20794;SDS011;28087;-33.874;151.240;2022-10-19T06:54:48;11.80;;;2.67;;
20794;SDS011;28087;-33.874;151.240;2022-10-19T06:57:24;15.27;;;2.70;;
20794;SDS011;28087;-33.874;151.240;2022-10-19T07:00:00;13.60;;;2.83;;
20794;SDS011;28087;-33.874;151.240;2022-10-19T07:02:38;10.02;;;2.38;;
20794;SDS011;28087;-33.874;151.240;2022-10-19T07:05:13;12.23;;;2.60;;
20794;SDS011;28087;-33.874;151.240;2022-10-19T07:07:49;13.95;;;2.67;;
20794;SDS011;28087;-33.874;151.240;2022-10-19T07:10:24;13.68;;;2.55;;
20794;SDS011;28087;-33.874;151.240;2022-10-19T07:12:59;12.60;;;2.75;;
20794;SDS011;28087;-33.874;151.240;2022-10-19T07:15:34;10.85;;;2.58;;
20794;SDS011;28087;-33.874;151.240;2022-10-19T07:18:12;11.15;;;2.70;;
20794;SDS011;28087;-33.874;151.240;2022-10-19T07:20:53;14.85;;;2.72;;
20794;SDS011;28087;-33.874;151.240;2022-10-19T07:23:30;13.80;;;2.80;;
20794;SDS011;28087;-33.874;151.240;2022-10-19T07:26:05;11.77;;;2.67;;
20794;SDS011;28087;-33.874;151.240;2022-10-19T07:28:42;10.88;;;2.40;;
20794;SDS011;28087;-33.874;151.240;2022-10-19T07:31:19;12.00;;;2.72;;
20794;SDS011;28087;-33.874;151.240;2022-10-19T07:33:59;8.27;;;2.00;;
20794;SDS011;28087;-33.874;151.240;2022-10-19T07:36:35;11.27;;;2.60;;
20794;SDS011;28087;-33.874;151.240;2022-10-19T07:39:14;15.13;;;2.90;;
20794;SDS011;28087;-33.874;151.240;2022-10-19T07:41:50;13.48;;;2.78;;
20794;SDS011;28087;-33.874;151.240;2022-10-19T07:44:25;11.98;;;2.33;;
20794;SDS011;28087;-33.874;151.240;2022-10-19T07:47:02;12.13;;;2.60;;
20794;SDS011;28087;-33.874;151.240;2022-10-19T07:49:39;12.05;;;2.50;;
20794;SDS011;28087;-33.874;151.240;2022-10-19T07:52:15;10.85;;;2.22;;
20794;SDS011;28087;-33.874;151.240;2022-10-19T07:54:50;12.13;;;2.40;;
20794;SDS011;28087;-33.874;151.240;2022-10-19T07:57:26;11.45;;;2.83;;
20794;SDS011;28087;-33.874;151.240;2022-10-19T08:00:01;10.82;;;2.50;;
20794;SDS011;28087;-33.874;151.240;2022-10-19T08:02:39;8.90;;;2.40;;
20794;SDS011;28087;-33.874;151.240;2022-10-19T08:05:36;11.48;;;2.50;;
20794;SDS011;28087;-33.874;151.240;2022-10-19T08:08:11;10.40;;;2.30;;
20794;SDS011;28087;-33.874;151.240;2022-10-19T08:10:47;8.52;;;2.33;;
20794;SDS011;28087;-33.874;151.240;2022-10-19T08:13:22;11.88;;;2.50;;
20794;SDS011;28087;-33.874;151.240;2022-10-19T08:15:58;9.63;;;2.75;;
20794;SDS011;28087;-33.874;151.240;2022-10-19T08:18:33;11.52;;;2.60;;
20794;SDS011;28087;-33.874;151.240;2022-10-19T08:21:10;11.90;;;2.92;;
20794;SDS011;28087;-33.874;151.240;2022-10-19T08:23:45;10.20;;;2.72;;
20794;SDS011;28087;-33.874;151.240;2022-10-19T08:26:20;14.15;;;2.90;;
20794;SDS011;28087;-33.874;151.240;2022-10-19T08:29:01;11.63;;;2.67;;
20794;SDS011;28087;-33.874;151.240;2022-10-19T08:31:39;9.90;;;2.70;;
20794;SDS011;28087;-33.874;151.240;2022-10-19T08:34:18;12.10;;;2.50;;
20794;SDS011;28087;-33.874;151.240;2022-10-19T08:36:56;13.75;;;2.70;;
20794;SDS011;28087;-33.874;151.240;2022-10-19T08:39:47;10.02;;;2.55;;
20794;SDS011;28087;-33.874;151.240;2022-10-19T08:42:24;8.43;;;2.30;;
20794;SDS011;28087;-33.874;151.240;2022-10-19T08:45:09;12.60;;;3.03;;
20794;SDS011;28087;-33.874;151.240;2022-10-19T08:48:02;13.02;;;2.55;;
20794;SDS011;28087;-33.874;151.240;2022-10-19T08:50:43;9.13;;;2.20;;
20794;SDS011;28087;-33.874;151.240;2022-10-19T08:53:23;11.48;;;2.70;;
20794;SDS011;28087;-33.874;151.240;2022-10-19T08:56:06;11.55;;;2.58;;
20794;SDS011;28087;-33.874;151.240;2022-10-19T08:59:21;11.95;;;2.65;;
20794;SDS011;28087;-33.874;151.240;2022-10-19T09:02:06;9.82;;;2.35;;
20794;SDS011;28087;-33.874;151.240;2022-10-19T09:04:48;10.23;;;2.25;;
20794;SDS011;28087;-33.874;151.240;2022-10-19T09:07:28;10.27;;;2.55;;
20794;SDS011;28087;-33.874;151.240;2022-10-19T09:10:14;10.27;;;2.70;;
20794;SDS011;28087;-33.874;151.240;2022-10-19T09:12:55;11.45;;;2.90;;
20794;SDS011;28087;-33.874;151.240;2022-10-19T09:15:33;9.07;;;2.75;;
20794;SDS011;28087;-33.874;151.240;2022-10-19T09:18:16;12.05;;;2.70;;
20794;SDS011;28087;-33.874;151.240;2022-10-19T09:20:57;11.77;;;3.08;;
20794;SDS011;28087;-33.874;151.240;2022-10-19T09:23:38;14.45;;;2.95;;
20794;SDS011;28087;-33.874;151.240;2022-10-19T09:26:19;10.30;;;2.83;;
20794;SDS011;28087;-33.874;151.240;2022-10-19T09:29:00;12.43;;;3.00;;
20794;SDS011;28087;-33.874;151.240;2022-10-19T09:31:39;14.18;;;2.80;;
20794;SDS011;28087;-33.874;151.240;2022-10-19T09:34:16;15.05;;;3.28;;
20794;SDS011;28087;-33.874;151.240;2022-10-19T09:36:57;11.70;;;3.00;;
20794;SDS011;28087;-33.874;151.240;2022-10-19T09:39:35;15.32;;;3.30;;
20794;SDS011;28087;-33.874;151.240;2022-10-19T09:42:25;14.20;;;3.25;;
20794;SDS011;28087;-33.874;151.240;2022-10-19T09:45:12;14.55;;;3.22;;
20794;SDS011;28087;-33.874;151.240;2022-10-19T09:47:49;14.32;;;3.40;;
20794;SDS011;28087;-33.874;151.240;2022-10-19T09:50:34;13.18;;;3.13;;
20794;SDS011;28087;-33.874;151.240;2022-10-19T09:53:14;14.80;;;3.20;;
20794;SDS011;28087;-33.874;151.240;2022-10-19T09:55:59;13.77;;;3.15;;
20794;SDS011;28087;-33.874;151.240;2022-10-19T09:58:39;17.85;;;3.53;;
20794;SDS011;28087;-33.874;151.240;2022-10-19T10:01:28;13.65;;;3.47;;
20794;SDS011;28087;-33.874;151.240;2022-10-19T10:04:13;16.00;;;3.67;;
20794;SDS011;28087;-33.874;151.240;2022-10-19T10:06:48;12.07;;;2.80;;
20794;SDS011;28087;-33.874;151.240;2022-10-19T10:09:24;12.63;;;2.92;;
20794;SDS011;28087;-33.874;151.240;2022-10-19T10:11:59;10.45;;;3.08;;
20794;SDS011;28087;-33.874;151.240;2022-10-19T10:14:39;12.07;;;2.88;;
20794;SDS011;28087;-33.874;151.240;2022-10-19T10:17:15;11.50;;;2.92;;
20794;SDS011;28087;-33.874;151.240;2022-10-19T10:20:01;11.75;;;2.47;;
20794;SDS011;28087;-33.874;151.240;2022-10-19T10:22:37;12.98;;;2.50;;
20794;SDS011;28087;-33.874;151.240;2022-10-19T10:25:15;10.82;;;2.63;;
20794;SDS011;28087;-33.874;151.240;2022-10-19T10:27:56;17.30;;;3.10;;
20794;SDS011;28087;-33.874;151.240;2022-10-19T10:30:35;13.00;;;2.95;;
20794;SDS011;28087;-33.874;151.240;2022-10-19T10:33:13;9.85;;;2.85;;
20794;SDS011;28087;-33.874;151.240;2022-10-19T10:36:08;11.25;;;2.30;;
20794;SDS011;28087;-33.874;151.240;2022-10-19T10:38:44;11.15;;;2.50;;
20794;SDS011;28087;-33.874;151.240;2022-10-19T10:41:21;11.88;;;2.97;;
20794;SDS011;28087;-33.874;151.240;2022-10-19T10:43:59;11.98;;;2.67;;
20794;SDS011;28087;-33.874;151.240;2022-10-19T10:46:39;12.93;;;2.63;;
20794;SDS011;28087;-33.874;151.240;2022-10-19T10:49:19;10.25;;;2.60;;
20794;SDS011;28087;-33.874;151.240;2022-10-19T10:51:55;10.63;;;2.58;;
20794;SDS011;28087;-33.874;151.240;2022-10-19T10:54:31;9.73;;;2.80;;
20794;SDS011;28087;-33.874;151.240;2022-10-19T10:57:10;13.02;;;2.75;;
20794;SDS011;28087;-33.874;151.240;2022-10-19T10:59:52;12.70;;;2.67;;
20794;SDS011;28087;-33.874;151.240;2022-10-19T11:02:33;13.77;;;3.00;;
20794;SDS011;28087;-33.874;151.240;2022-10-19T11:05:10;10.07;;;2.70;;
20794;SDS011;28087;-33.874;151.240;2022-10-19T11:07:47;10.20;;;2.53;;
20794;SDS011;28087;-33.874;151.240;2022-10-19T11:10:25;9.82;;;2.70;;
20794;SDS011;28087;-33.874;151.240;2022-10-19T11:13:03;12.55;;;2.72;;
20794;SDS011;28087;-33.874;151.240;2022-10-19T11:15:43;12.88;;;2.60;;
20794;SDS011;28087;-33.874;151.240;2022-10-19T11:18:23;11.95;;;2.60;;
20794;SDS011;28087;-33.874;151.240;2022-10-19T11:21:03;13.00;;;2.83;;
20794;SDS011;28087;-33.874;151.240;2022-10-19T11:23:42;13.65;;;2.85;;
20794;SDS011;28087;-33.874;151.240;2022-10-19T11:26:27;10.25;;;2.40;;
20794;SDS011;28087;-33.874;151.240;2022-10-19T11:29:08;10.80;;;2.63;;
20794;SDS011;28087;-33.874;151.240;2022-10-19T11:31:46;10.45;;;2.53;;
20794;SDS011;28087;-33.874;151.240;2022-10-19T11:34:30;17.30;;;2.80;;
20794;SDS011;28087;-33.874;151.240;2022-10-19T11:37:12;10.88;;;2.50;;
20794;SDS011;28087;-33.874;151.240;2022-10-19T11:39:54;12.00;;;2.50;;
20794;SDS011;28087;-33.874;151.240;2022-10-19T11:42:39;11.48;;;2.70;;
20794;SDS011;28087;-33.874;151.240;2022-10-19T11:45:22;10.20;;;2.60;;
20794;SDS011;28087;-33.874;151.240;2022-10-19T11:48:09;15.23;;;2.83;;
20794;SDS011;28087;-33.874;151.240;2022-10-19T11:50:53;9.85;;;2.47;;
20794;SDS011;28087;-33.874;151.240;2022-10-19T11:53:53;10.80;;;2.72;;
20794;SDS011;28087;-33.874;151.240;2022-10-19T11:56:33;10.32;;;2.63;;
20794;SDS011;28087;-33.874;151.240;2022-10-19T11:59:32;11.30;;;2.30;;
20794;SDS011;28087;-33.874;151.240;2022-10-19T12:02:18;11.27;;;2.75;;
20794;SDS011;28087;-33.874;151.240;2022-10-19T12:04:58;11.98;;;2.75;;
20794;SDS011;28087;-33.874;151.240;2022-10-19T12:07:48;12.93;;;2.63;;
20794;SDS011;28087;-33.874;151.240;2022-10-19T12:10:35;12.65;;;2.60;;
20794;SDS011;28087;-33.874;151.240;2022-10-19T12:13:17;11.93;;;2.80;;
20794;SDS011;28087;-33.874;151.240;2022-10-19T12:15:55;14.07;;;2.92;;
20794;SDS011;28087;-33.874;151.240;2022-10-19T12:18:39;11.48;;;2.60;;
20794;SDS011;28087;-33.874;151.240;2022-10-19T12:21:19;11.30;;;2.58;;
20794;SDS011;28087;-33.874;151.240;2022-10-19T12:24:01;11.18;;;2.83;;
20794;SDS011;28087;-33.874;151.240;2022-10-19T12:26:38;16.33;;;3.03;;
20794;SDS011;28087;-33.874;151.240;2022-10-19T12:29:16;12.23;;;2.63;;
20794;SDS011;28087;-33.874;151.240;2022-10-19T12:31:54;14.38;;;2.63;;
20794;SDS011;28087;-33.874;151.240;2022-10-19T12:34:34;10.82;;;2.58;;
20794;SDS011;28087;-33.874;151.240;2022-10-19T12:37:12;15.13;;;3.00;;
20794;SDS011;28087;-33.874;151.240;2022-10-19T12:40:15;14.00;;;3.00;;
20794;SDS011;28087;-33.874;151.240;2022-10-19T12:42:57;13.43;;;2.90;;
20794;SDS011;28087;-33.874;151.240;2022-10-19T12:45:34;12.40;;;2.80;;
20794;SDS011;28087;-33.874;151.240;2022-10-19T12:48:20;16.30;;;2.60;;
20794;SDS011;28087;-33.874;151.240;2022-10-19T12:50:58;15.02;;;2.70;;
20794;SDS011;28087;-33.874;151.240;2022-10-19T12:53:36;14.30;;;2.92;;
20794;SDS011;28087;-33.874;151.240;2022-10-19T12:56:14;11.80;;;2.63;;
20794;SDS011;28087;-33.874;151.240;2022-10-19T12:58:53;16.58;;;2.88;;
20794;SDS011;28087;-33.874;151.240;2022-10-19T13:01:39;14.05;;;2.80;;
20794;SDS011;28087;-33.874;151.240;2022-10-19T13:04:14;12.13;;;2.97;;
20794;SDS011;28087;-33.874;151.240;2022-10-19T13:06:49;11.45;;;2.30;;
20794;SDS011;28087;-33.874;151.240;2022-10-19T13:09:25;11.82;;;2.65;;
20794;SDS011;28087;-33.874;151.240;2022-10-19T13:14:56;16.20;;;3.00;;
20794;SDS011;28087;-33.874;151.240;2022-10-19T13:17:37;17.90;;;3.28;;
20794;SDS011;28087;-33.874;151.240;2022-10-19T13:29:22;13.55;;;2.88;;
20794;SDS011;28087;-33.874;151.240;2022-10-19T13:32:09;13.20;;;2.95;;
20794;SDS011;28087;-33.874;151.240;2022-10-19T13:40:57;14.57;;;3.13;;
20794;SDS011;28087;-33.874;151.240;2022-10-19T13:43:36;15.32;;;2.90;;
20794;SDS011;28087;-33.874;151.240;2022-10-19T13:46:13;14.45;;;3.08;;
20794;SDS011;28087;-33.874;151.240;2022-10-19T13:49:04;15.10;;;2.50;;
20794;SDS011;28087;-33.874;151.240;2022-10-19T13:51:45;16.52;;;2.78;;
20794;SDS011;28087;-33.874;151.240;2022-10-19T13:54:29;19.65;;;3.30;;
20794;SDS011;28087;-33.874;151.240;2022-10-19T13:57:08;16.38;;;3.10;;
20794;SDS011;28087;-33.874;151.240;2022-10-19T13:59:59;16.55;;;3.58;;
20794;SDS011;28087;-33.874;151.240;2022-10-19T14:02:43;15.20;;;3.38;;
20794;SDS011;28087;-33.874;151.240;2022-10-19T14:05:28;18.38;;;3.22;;
20794;SDS011;28087;-33.874;151.240;2022-10-19T14:08:12;16.30;;;2.80;;
20794;SDS011;28087;-33.874;151.240;2022-10-19T14:10:48;19.15;;;3.35;;
20794;SDS011;28087;-33.874;151.240;2022-10-19T14:13:29;15.23;;;3.30;;
20794;SDS011;28087;-33.874;151.240;2022-10-19T14:16:04;17.52;;;3.03;;
20794;SDS011;28087;-33.874;151.240;2022-10-19T14:18:40;17.13;;;3.45;;
20794;SDS011;28087;-33.874;151.240;2022-10-19T14:21:20;18.73;;;3.10;;
20794;SDS011;28087;-33.874;151.240;2022-10-19T14:24:01;16.98;;;3.35;;
20794;SDS011;28087;-33.874;151.240;2022-10-19T14:26:35;13.82;;;3.10;;
20794;SDS011;28087;-33.874;151.240;2022-10-19T14:29:13;13.10;;;3.22;;
20794;SDS011;28087;-33.874;151.240;2022-10-19T14:31:47;15.20;;;3.42;;
20794;SDS011;28087;-33.874;151.240;2022-10-19T14:34:22;13.63;;;3.30;;
20794;SDS011;28087;-33.874;151.240;2022-10-19T14:37:02;13.90;;;2.92;;
20794;SDS011;28087;-33.874;151.240;2022-10-19T14:39:37;17.42;;;3.17;;
20794;SDS011;28087;-33.874;151.240;2022-10-19T14:42:13;20.33;;;3.65;;
20794;SDS011;28087;-33.874;151.240;2022-10-19T14:44:48;16.73;;;3.60;;
20794;SDS011;28087;-33.874;151.240;2022-10-19T14:47:22;11.15;;;3.22;;
20794;SDS011;28087;-33.874;151.240;2022-10-19T14:49:57;17.95;;;3.35;;
20794;SDS011;28087;-33.874;151.240;2022-10-19T14:52:35;16.30;;;3.55;;
20794;SDS011;28087;-33.874;151.240;2022-10-19T14:55:13;15.30;;;3.05;;
20794;SDS011;28087;-33.874;151.240;2022-10-19T14:57:49;16.10;;;3.30;;
20794;SDS011;28087;-33.874;151.240;2022-10-19T15:00:26;14.82;;;2.88;;
20794;SDS011;28087;-33.874;151.240;2022-10-19T15:03:02;16.63;;;3.30;;
20794;SDS011;28087;-33.874;151.240;2022-10-19T15:05:39;15.95;;;3.03;;
20794;SDS011;28087;-33.874;151.240;2022-10-19T15:08:18;17.10;;;3.38;;
20794;SDS011;28087;-33.874;151.240;2022-10-19T15:10:55;15.73;;;3.67;;
20794;SDS011;28087;-33.874;151.240;2022-10-19T15:13:33;13.07;;;3.20;;
20794;SDS011;28087;-33.874;151.240;2022-10-19T15:16:30;15.98;;;3.92;;
20794;SDS011;28087;-33.874;151.240;2022-10-19T15:19:14;14.18;;;3.50;;
20794;SDS011;28087;-33.874;151.240;2022-10-19T15:24:52;13.65;;;3.17;;
20794;SDS011;28087;-33.874;151.240;2022-10-19T15:27:28;14.85;;;3.67;;
20794;SDS011;28087;-33.874;151.240;2022-10-19T15:30:04;12.70;;;3.28;;
20794;SDS011;28087;-33.874;151.240;2022-10-19T15:32:38;15.82;;;3.30;;
20794;SDS011;28087;-33.874;151.240;2022-10-19T15:35:16;18.27;;;3.97;;
20794;SDS011;28087;-33.874;151.240;2022-10-19T15:37:58;14.98;;;3.50;;